Time;durP1;ratioP1;P1;durP2;ratioP2;P2;SDS_P1;SDS_P2;PMS_P1;PMS_P2;Temp;Humidity;BMP_temperature;BMP_pressure;BME280_temperature;BME280_humidity;BME280_pressure;Samples;Min_cycle;Max_cycle;Signal;HPM_P1;HPM_P2
2021/09/28 00:01:54;;;;;;;11.73;10.32;;;15.30;99.90;;;;;;4980228;28;20228;-89
2021/09/28 00:04:21;;;;;;;13.52;11.55;;;15.30;99.90;;;;;;4982063;28;20639;-90
2021/09/28 00:06:50;;;;;;;12.55;11.25;;;15.20;99.90;;;;;;4982007;28;20703;-89
2021/09/28 00:09:17;;;;;;;14.95;11.63;;;15.20;99.90;;;;;;4980366;28;20238;-89
2021/09/28 00:11:44;;;;;;;12.73;11.43;;;15.20;99.90;;;;;;4987245;28;20223;-88
2021/09/28 00:14:11;;;;;;;12.57;10.93;;;15.10;99.90;;;;;;4971860;28;20228;-89
2021/09/28 00:16:39;;;;;;;15.68;11.43;;;15.10;99.90;;;;;;4989100;28;20259;-89
2021/09/28 00:19:06;;;;;;;15.00;10.90;;;15.10;99.90;;;;;;4978920;28;20208;-90
2021/09/28 00:21:33;;;;;;;12.73;11.43;;;15.20;99.90;;;;;;4992525;28;20241;-88
2021/09/28 00:24:01;;;;;;;13.05;11.18;;;15.10;99.90;;;;;;4990644;28;20216;-89
2021/09/28 00:26:28;;;;;;;13.98;10.75;;;15.10;99.90;;;;;;4992805;28;20230;-89
2021/09/28 00:28:55;;;;;;;15.02;11.40;;;15.20;99.90;;;;;;4979434;28;20196;-90
2021/09/28 00:31:22;;;;;;;17.08;11.45;;;15.20;99.90;;;;;;4985960;28;20234;-89
2021/09/28 00:33:49;;;;;;;11.85;10.65;;;15.10;99.90;;;;;;4978447;28;20206;-89
2021/09/28 00:36:16;;;;;;;12.38;10.95;;;15.20;99.90;;;;;;4985363;28;20227;-89
2021/09/28 00:38:43;;;;;;;12.82;11.27;;;15.10;99.90;;;;;;4983502;28;20203;-89
2021/09/28 00:41:11;;;;;;;12.27;10.98;;;15.00;99.90;;;;;;4989102;28;20667;-89
2021/09/28 00:43:45;;;;;;;12.13;10.07;;;15.00;99.90;;;;;;4990902;28;20223;-90
2021/09/28 00:46:12;;;;;;;12.00;10.80;;;15.00;99.90;;;;;;4981894;28;20233;-89
2021/09/28 00:48:40;;;;;;;14.88;11.48;;;15.00;99.90;;;;;;4987141;28;20197;-89
2021/09/28 00:51:07;;;;;;;12.35;11.05;;;14.90;99.90;;;;;;4982773;28;20314;-89
2021/09/28 00:53:38;;;;;;;13.13;11.27;;;14.90;99.90;;;;;;4986878;28;20210;-88
2021/09/28 00:56:05;;;;;;;13.32;11.50;;;14.90;99.90;;;;;;4988171;28;20243;-89
2021/09/28 00:58:35;;;;;;;14.38;11.55;;;14.80;99.90;;;;;;4995063;28;20208;-89
2021/09/28 01:01:03;;;;;;;13.15;11.13;;;14.80;99.90;;;;;;4978876;28;20751;-89
2021/09/28 01:03:31;;;;;;;14.02;12.10;;;14.80;99.90;;;;;;4990952;28;20296;-90
2021/09/28 01:05:58;;;;;;;12.60;11.23;;;14.80;99.90;;;;;;4991733;28;20228;-90
2021/09/28 01:08:25;;;;;;;12.90;11.18;;;14.80;99.90;;;;;;4988979;28;20214;-90
2021/09/28 01:10:52;;;;;;;15.45;11.52;;;14.80;99.90;;;;;;4974717;28;20231;-89
2021/09/28 01:13:19;;;;;;;13.05;11.13;;;14.90;99.90;;;;;;4991693;28;20229;-88
2021/09/28 01:16:02;;;;;;;12.45;11.15;;;14.90;99.90;;;;;;4985879;28;20240;-90
2021/09/28 01:18:31;;;;;;;11.73;10.52;;;14.90;99.90;;;;;;4985815;28;20204;-90
2021/09/28 01:21:00;;;;;;;14.93;11.05;;;14.90;99.90;;;;;;4987594;28;20232;-89
2021/09/28 01:23:27;;;;;;;12.73;10.40;;;15.00;99.90;;;;;;4985928;28;20223;-89
2021/09/28 01:25:54;;;;;;;13.75;11.00;;;15.00;99.90;;;;;;4982850;28;20232;-91
2021/09/28 01:28:22;;;;;;;11.10;9.82;;;15.00;99.90;;;;;;4984397;28;20230;-89
2021/09/28 01:30:50;;;;;;;13.55;10.68;;;15.10;99.90;;;;;;4989451;28;20236;-89
2021/09/28 01:33:17;;;;;;;12.05;10.40;;;15.10;99.90;;;;;;5004568;28;20203;-89
2021/09/28 01:35:44;;;;;;;14.18;10.63;;;15.20;99.90;;;;;;4993763;28;20627;-89
2021/09/28 01:38:13;;;;;;;13.48;10.40;;;15.30;99.90;;;;;;4983361;28;20207;-90
2021/09/28 01:40:40;;;;;;;11.63;10.43;;;15.30;99.90;;;;;;4986940;28;20226;-90
2021/09/28 01:43:07;;;;;;;11.73;10.35;;;15.30;99.90;;;;;;4984133;28;20302;-89
2021/09/28 01:45:34;;;;;;;12.23;10.75;;;15.30;99.90;;;;;;4990897;28;20225;-90
2021/09/28 01:48:01;;;;;;;11.38;9.95;;;15.40;99.90;;;;;;4998859;28;20207;-89
2021/09/28 01:50:28;;;;;;;10.90;9.80;;;15.40;99.90;;;;;;4989094;28;20226;-89
2021/09/28 01:52:55;;;;;;;12.20;10.02;;;15.40;99.90;;;;;;4985664;28;20206;-88
2021/09/28 01:55:24;;;;;;;11.50;10.30;;;15.40;99.90;;;;;;4980355;28;20564;-89
2021/09/28 01:57:55;;;;;;;12.20;10.07;;;15.50;99.90;;;;;;4992599;28;20566;-89
2021/09/28 02:00:23;;;;;;;11.52;10.20;;;15.50;99.90;;;;;;4978892;28;20306;-88
2021/09/28 02:02:50;;;;;;;12.27;9.77;;;15.50;99.90;;;;;;4984884;28;20222;-90
2021/09/28 02:05:17;;;;;;;11.48;9.73;;;15.50;99.90;;;;;;4989006;28;20246;-90
2021/09/28 02:07:44;;;;;;;14.45;10.60;;;15.50;99.90;;;;;;4985215;28;20507;-89
2021/09/28 02:10:12;;;;;;;10.32;9.32;;;15.50;99.90;;;;;;4987275;28;20290;-89
2021/09/28 02:12:41;;;;;;;10.32;9.32;;;15.60;99.90;;;;;;4982845;28;20244;-89
2021/09/28 02:15:08;;;;;;;11.00;9.65;;;15.50;99.90;;;;;;4978899;28;20246;-89
2021/09/28 02:17:35;;;;;;;12.45;9.65;;;15.50;99.90;;;;;;4980884;28;20582;-89
2021/09/28 02:20:03;;;;;;;10.95;9.68;;;15.40;99.90;;;;;;4983572;28;20234;-89
2021/09/28 02:22:30;;;;;;;10.98;9.50;;;15.40;99.90;;;;;;4986369;28;20204;-89
2021/09/28 02:24:57;;;;;;;10.07;8.98;;;15.40;99.90;;;;;;4988307;28;20227;-89
2021/09/28 02:27:24;;;;;;;11.50;8.68;;;15.30;99.90;;;;;;4990234;28;20200;-89
2021/09/28 02:29:52;;;;;;;10.15;8.93;;;15.30;99.90;;;;;;4993400;28;20208;-89
2021/09/28 02:32:19;;;;;;;10.15;9.15;;;15.20;99.90;;;;;;4989197;28;20239;-90
2021/09/28 02:34:46;;;;;;;11.20;9.45;;;15.20;99.90;;;;;;4990410;28;20206;-89
2021/09/28 02:37:13;;;;;;;10.23;9.10;;;15.20;99.90;;;;;;4995104;28;20234;-89
2021/09/28 02:39:40;;;;;;;10.13;9.13;;;15.10;99.90;;;;;;4991043;28;20196;-89
2021/09/28 02:42:08;;;;;;;9.90;8.90;;;15.10;99.90;;;;;;4982742;28;20204;-89
2021/09/28 02:44:35;;;;;;;11.18;9.00;;;15.00;99.90;;;;;;4986838;28;20196;-89
2021/09/28 02:47:04;;;;;;;11.60;9.32;;;15.10;99.90;;;;;;4982719;28;20209;-88
2021/09/28 02:49:31;;;;;;;9.63;8.73;;;15.00;99.90;;;;;;4994323;28;20227;-88
2021/09/28 02:51:58;;;;;;;9.85;8.95;;;15.00;99.90;;;;;;4990660;28;20235;-89
2021/09/28 02:54:26;;;;;;;10.40;9.20;;;14.90;99.90;;;;;;4996820;28;20206;-88
2021/09/28 02:56:53;;;;;;;9.85;8.85;;;14.90;99.90;;;;;;4992755;28;20478;-89
2021/09/28 02:59:19;;;;;;;9.80;8.80;;;14.90;99.90;;;;;;4988523;28;20203;-89
2021/09/28 03:01:47;;;;;;;9.80;8.80;;;14.90;99.90;;;;;;4980362;28;20220;-89
2021/09/28 03:04:15;;;;;;;10.40;9.05;;;14.90;99.90;;;;;;4982442;28;20212;-89
2021/09/28 03:06:42;;;;;;;9.93;8.80;;;15.10;99.90;;;;;;4984215;28;20311;-90
2021/09/28 03:09:09;;;;;;;12.02;9.18;;;15.00;99.90;;;;;;4983785;28;20230;-89
2021/09/28 03:11:36;;;;;;;10.23;9.23;;;15.00;99.90;;;;;;4987601;28;20311;-88
2021/09/28 03:14:03;;;;;;;10.30;8.90;;;14.90;99.90;;;;;;4986077;28;20243;-88
2021/09/28 03:16:31;;;;;;;11.40;9.52;;;14.90;99.90;;;;;;4982789;28;20242;-88
2021/09/28 03:18:57;;;;;;;10.75;9.60;;;14.90;99.90;;;;;;4989038;28;20575;-89
2021/09/28 03:21:26;;;;;;;10.75;8.38;;;14.90;99.90;;;;;;4982816;28;20219;-89
2021/09/28 03:23:53;;;;;;;9.00;8.10;;;15.00;99.90;;;;;;4977622;28;20374;-89
2021/09/28 03:26:20;;;;;;;10.07;9.07;;;15.10;99.90;;;;;;4986760;28;20227;-89
2021/09/28 03:28:47;;;;;;;10.13;9.07;;;15.00;99.90;;;;;;4984683;28;20204;-89
2021/09/28 03:31:14;;;;;;;10.32;9.15;;;14.90;99.90;;;;;;4984702;28;20224;-89
2021/09/28 03:33:41;;;;;;;11.60;8.52;;;14.90;99.90;;;;;;4990085;28;20277;-89
2021/09/28 03:36:08;;;;;;;9.77;8.80;;;14.90;99.90;;;;;;4989378;28;20238;-89
2021/09/28 03:38:37;;;;;;;11.85;9.18;;;14.90;99.90;;;;;;4978859;28;20284;-88
2021/09/28 03:41:04;;;;;;;11.25;9.23;;;14.90;99.90;;;;;;4982996;28;20589;-88
2021/09/28 03:43:31;;;;;;;11.02;8.98;;;14.90;99.90;;;;;;4986848;28;20200;-89
2021/09/28 03:45:59;;;;;;;9.95;8.95;;;14.90;99.90;;;;;;4987201;28;20235;-89
2021/09/28 03:48:26;;;;;;;9.68;8.77;;;15.00;99.90;;;;;;4979331;28;20222;-89
2021/09/28 03:50:53;;;;;;;9.52;8.63;;;15.10;99.90;;;;;;4983014;28;20248;-89
2021/09/28 03:53:20;;;;;;;11.60;8.88;;;15.30;99.90;;;;;;4981263;28;20239;-89
2021/09/28 03:55:49;;;;;;;9.93;8.93;;;15.30;99.90;;;;;;4980784;28;20231;-90
2021/09/28 03:58:16;;;;;;;9.75;8.85;;;15.30;99.90;;;;;;4980334;28;20200;-89
2021/09/28 04:00:43;;;;;;;9.73;8.73;;;15.20;99.90;;;;;;4981509;28;20695;-89
2021/09/28 04:03:11;;;;;;;8.75;7.95;;;15.20;99.90;;;;;;4986697;28;20212;-89
2021/09/28 04:05:39;;;;;;;11.88;9.00;;;15.30;99.90;;;;;;4984181;28;20224;-89
2021/09/28 04:08:06;;;;;;;9.77;8.60;;;15.30;99.90;;;;;;4981942;28;20204;-88
2021/09/28 04:10:35;;;;;;;10.70;9.25;;;15.30;99.90;;;;;;4989267;28;20231;-89
2021/09/28 04:13:05;;;;;;;12.13;9.63;;;15.30;99.90;;;;;;4982734;28;20220;-88
2021/09/28 04:15:39;;;;;;;14.02;9.85;;;15.30;99.90;;;;;;4989581;28;20267;-88
2021/09/28 04:18:06;;;;;;;14.38;11.65;;;15.30;99.90;;;;;;4973145;28;20251;-88
2021/09/28 04:20:35;;;;;;;20.35;16.02;;;15.40;99.90;;;;;;4989151;28;21830;-88
2021/09/28 04:23:02;;;;;;;13.68;11.93;;;15.40;99.90;;;;;;4982569;28;20203;-88
2021/09/28 04:25:29;;;;;;;15.57;13.10;;;15.40;99.90;;;;;;4989837;28;20318;-88
2021/09/28 04:27:56;;;;;;;15.98;12.55;;;15.50;99.90;;;;;;4992860;28;20208;-89
2021/09/28 04:30:24;;;;;;;14.23;12.13;;;15.60;99.90;;;;;;4990294;28;20227;-88
2021/09/28 04:32:52;;;;;;;14.93;12.00;;;15.60;99.90;;;;;;4991407;28;20632;-89
2021/09/28 04:35:19;;;;;;;14.63;11.93;;;15.70;99.90;;;;;;4985116;28;20258;-89
2021/09/28 04:37:46;;;;;;;15.52;11.57;;;15.80;99.60;;;;;;4982775;28;20225;-89
2021/09/28 04:40:14;;;;;;;12.73;10.90;;;15.90;99.20;;;;;;4990042;28;20245;-92
2021/09/28 04:42:42;;;;;;;12.70;11.18;;;15.80;99.10;;;;;;4993530;28;20208;-91
2021/09/28 04:45:10;;;;;;;14.38;12.02;;;15.90;99.00;;;;;;4982389;28;20236;-90
2021/09/28 04:47:39;;;;;;;22.50;17.30;;;15.90;98.70;;;;;;4985779;28;20206;-91
2021/09/28 04:50:07;;;;;;;14.68;12.65;;;15.90;98.70;;;;;;4982813;28;20238;-90
2021/09/28 04:52:36;;;;;;;17.38;12.32;;;15.90;98.50;;;;;;4985491;28;20204;-89
2021/09/28 04:55:03;;;;;;;14.40;12.65;;;15.80;98.40;;;;;;4985381;28;20282;-89
2021/09/28 04:57:31;;;;;;;14.18;12.25;;;15.80;98.60;;;;;;4983661;28;20712;-89
2021/09/28 04:59:58;;;;;;;16.65;12.52;;;15.80;98.70;;;;;;4977374;28;20228;-89
2021/09/28 05:02:25;;;;;;;16.95;14.50;;;15.80;98.30;;;;;;4985739;28;20204;-89
2021/09/28 05:04:53;;;;;;;14.07;12.55;;;15.80;98.70;;;;;;4987901;28;20197;-88
2021/09/28 05:07:20;;;;;;;17.45;13.02;;;15.90;98.50;;;;;;4982774;28;20204;-89
2021/09/28 05:09:47;;;;;;;14.65;12.25;;;16.00;97.90;;;;;;4987978;28;20200;-88
2021/09/28 05:12:14;;;;;;;14.50;12.95;;;16.00;97.60;;;;;;4988327;28;20200;-89
2021/09/28 05:14:42;;;;;;;18.50;15.85;;;15.90;97.80;;;;;;4981362;28;20211;-89
2021/09/28 05:17:10;;;;;;;13.80;11.70;;;15.90;98.10;;;;;;4981014;28;20883;-90
2021/09/28 05:19:37;;;;;;;16.70;12.10;;;15.90;97.90;;;;;;4981522;28;20207;-90
2021/09/28 05:22:19;;;;;;;20.23;17.98;;;15.90;97.70;;;;;;4965089;28;20208;-88
2021/09/28 05:24:46;;;;;;;18.52;16.70;;;15.90;98.00;;;;;;4984365;28;20211;-90
2021/09/28 05:27:14;;;;;;;40.25;36.15;;;16.00;97.90;;;;;;4994137;28;20207;-90
2021/09/28 05:29:42;;;;;;;55.92;50.00;;;16.00;98.00;;;;;;4972893;28;20205;-89
2021/09/28 05:32:10;;;;;;;34.03;30.50;;;16.00;97.80;;;;;;4985942;28;20208;-90
2021/09/28 05:34:37;;;;;;;26.65;23.95;;;16.00;97.70;;;;;;4988452;28;20199;-90
2021/09/28 05:37:05;;;;;;;29.65;26.58;;;16.00;98.00;;;;;;4972018;28;20759;-89
2021/09/28 05:39:33;;;;;;;21.73;17.38;;;16.10;97.50;;;;;;4995589;28;20204;-88
2021/09/28 05:42:01;;;;;;;17.42;12.55;;;16.20;97.20;;;;;;4984609;28;20573;-89
2021/09/28 05:44:28;;;;;;;20.73;16.15;;;16.00;97.10;;;;;;4985138;28;20204;-89
2021/09/28 05:46:55;;;;;;;17.80;12.00;;;16.00;97.70;;;;;;4964019;28;20266;-89
2021/09/28 05:49:22;;;;;;;32.75;29.45;;;16.00;97.80;;;;;;4990338;28;20261;-89
2021/09/28 05:51:53;;;;;;;15.25;11.63;;;15.90;98.10;;;;;;4973042;28;20235;-89
2021/09/28 05:54:21;;;;;;;26.52;24.00;;;15.90;97.90;;;;;;4997476;28;20211;-90
2021/09/28 05:56:52;;;;;;;17.77;16.05;;;16.00;98.00;;;;;;4984081;28;20235;-92
2021/09/28 05:59:19;;;;;;;13.18;10.60;;;16.10;97.90;;;;;;4995400;28;20206;-91
2021/09/28 06:01:48;;;;;;;12.90;11.63;;;16.10;97.20;;;;;;4996047;28;20240;-91
2021/09/28 06:04:15;;;;;;;18.40;15.40;;;16.20;97.20;;;;;;4989182;28;20211;-91
2021/09/28 06:06:42;;;;;;;13.20;8.68;;;16.20;97.20;;;;;;4990761;28;20230;-92
2021/09/28 06:09:09;;;;;;;11.68;8.43;;;16.20;97.20;;;;;;4984815;28;20264;-91
2021/09/28 06:11:37;;;;;;;10.20;9.20;;;16.20;97.20;;;;;;4987857;28;20216;-92
2021/09/28 06:14:05;;;;;;;9.38;7.53;;;16.20;97.20;;;;;;4996335;28;20215;-92
2021/09/28 06:16:32;;;;;;;9.00;7.17;;;16.20;96.80;;;;;;4987325;28;20234;-91
2021/09/28 06:18:59;;;;;;;7.88;7.07;;;16.30;96.60;;;;;;4988207;28;20291;-92
2021/09/28 06:21:26;;;;;;;8.05;6.28;;;16.10;96.30;;;;;;4986646;28;20231;-92
2021/09/28 06:23:53;;;;;;;7.72;6.35;;;16.10;96.50;;;;;;4983843;28;20192;-92
2021/09/28 06:26:23;;;;;;;7.60;6.00;;;15.90;96.50;;;;;;4988266;28;20227;-92
2021/09/28 06:28:50;;;;;;;8.73;5.50;;;16.10;96.40;;;;;;4987149;28;20204;-92
2021/09/28 06:31:19;;;;;;;6.30;5.25;;;16.10;96.10;;;;;;4992729;28;20230;-91
2021/09/28 06:33:46;;;;;;;6.32;4.85;;;16.10;96.20;;;;;;4991478;28;20668;-91
2021/09/28 06:36:13;;;;;;;7.35;5.32;;;16.10;95.70;;;;;;4980032;28;20228;-91
2021/09/28 06:38:40;;;;;;;5.57;4.60;;;16.00;95.90;;;;;;4977385;28;20228;-92
2021/09/28 06:44:36;;;;;;;6.65;4.32;;;16.10;95.20;;;;;;4979028;28;20212;-92
2021/09/28 06:47:05;;;;;;;4.78;3.40;;;16.00;94.80;;;;;;4994819;28;20227;-90
2021/09/28 06:49:32;;;;;;;4.03;3.40;;;16.00;94.90;;;;;;5006976;28;20199;-91
2021/09/28 06:51:59;;;;;;;3.58;3.20;;;15.90;94.70;;;;;;4985736;28;21001;-89
2021/09/28 06:54:26;;;;;;;4.35;3.40;;;16.00;94.60;;;;;;4997809;28;20199;-90
2021/09/28 06:56:53;;;;;;;4.93;2.22;;;16.00;94.90;;;;;;4982949;28;20307;-89
2021/09/28 06:59:20;;;;;;;2.78;1.90;;;16.10;94.20;;;;;;4992582;28;20206;-91
2021/09/28 07:02:17;;;;;;;3.90;2.42;;;16.10;93.50;;;;;;4990980;28;20234;-92
2021/09/28 07:04:45;;;;;;;2.92;2.33;;;16.10;93.70;;;;;;4992480;28;20199;-90
2021/09/28 07:07:12;;;;;;;2.55;1.95;;;16.10;93.70;;;;;;4982699;28;20218;-91
2021/09/28 07:09:39;;;;;;;2.58;1.52;;;16.10;93.40;;;;;;4990311;28;20196;-92
2021/09/28 07:12:06;;;;;;;2.03;1.52;;;16.10;93.00;;;;;;4984931;28;20207;-92
2021/09/28 07:14:33;;;;;;;2.63;1.77;;;16.00;92.50;;;;;;4987324;28;20213;-92
2021/09/28 07:17:00;;;;;;;1.83;1.48;;;16.00;92.60;;;;;;4990626;28;20234;-91
2021/09/28 07:19:29;;;;;;;1.65;1.55;;;16.00;92.70;;;;;;4984763;28;20200;-90
2021/09/28 07:21:56;;;;;;;6.03;1.83;;;16.10;92.70;;;;;;4995548;28;20700;-91
2021/09/28 07:24:23;;;;;;;2.17;1.60;;;16.10;92.70;;;;;;4989437;28;20690;-91
2021/09/28 07:26:50;;;;;;;1.63;1.40;;;16.00;92.90;;;;;;4993618;28;20215;-90
2021/09/28 07:29:17;;;;;;;1.20;0.98;;;15.90;92.60;;;;;;4980404;28;20223;-89
2021/09/28 07:31:45;;;;;;;0.80;0.80;;;15.70;92.50;;;;;;4979990;28;20224;-91
2021/09/28 07:34:13;;;;;;;1.42;1.00;;;15.40;93.20;;;;;;4986720;28;20211;-90
2021/09/28 07:36:41;;;;;;;1.60;1.08;;;15.10;94.30;;;;;;4981776;28;20227;-89
2021/09/28 07:39:08;;;;;;;1.20;1.10;;;15.10;95.90;;;;;;4984568;28;20594;-90
2021/09/28 07:41:35;;;;;;;1.60;1.17;;;15.20;95.70;;;;;;4984388;28;20238;-90
2021/09/28 07:44:02;;;;;;;2.08;1.10;;;15.20;95.90;;;;;;4984609;28;20302;-90
2021/09/28 07:46:29;;;;;;;1.40;1.30;;;15.30;95.80;;;;;;4991634;28;20232;-90
2021/09/28 07:48:56;;;;;;;1.65;1.17;;;15.40;95.00;;;;;;4983761;28;20204;-90
2021/09/28 07:51:23;;;;;;;2.65;1.17;;;15.40;94.50;;;;;;4988527;28;20231;-90
2021/09/28 07:53:52;;;;;;;3.17;1.35;;;15.50;94.70;;;;;;4980463;28;20672;-90
2021/09/28 07:56:20;;;;;;;1.70;0.98;;;15.70;94.20;;;;;;4982590;28;20220;-91
2021/09/28 07:58:47;;;;;;;1.17;0.98;;;15.80;93.70;;;;;;4981649;28;20231;-90
2021/09/28 08:01:14;;;;;;;1.40;1.10;;;16.00;92.60;;;;;;4983559;28;20592;-91
2021/09/28 08:03:41;;;;;;;1.10;0.93;;;16.00;91.70;;;;;;4988051;28;20675;-90
2021/09/28 08:06:27;;;;;;;1.27;0.77;;;16.00;91.70;;;;;;4978313;28;20232;-90
2021/09/28 08:08:55;;;;;;;1.83;1.02;;;16.10;91.70;;;;;;4987877;28;20199;-89
2021/09/28 08:11:22;;;;;;;2.65;1.20;;;16.10;91.70;;;;;;4989112;28;20777;-90
2021/09/28 08:13:49;;;;;;;2.72;1.17;;;16.00;90.90;;;;;;4984893;28;20247;-90
2021/09/28 08:16:16;;;;;;;3.28;1.38;;;16.10;91.10;;;;;;4992157;28;20234;-89
2021/09/28 08:18:44;;;;;;;2.40;1.45;;;16.20;91.10;;;;;;4977907;28;20262;-89
2021/09/28 08:21:11;;;;;;;1.23;1.13;;;16.20;91.40;;;;;;4994570;28;20574;-89
2021/09/28 08:23:38;;;;;;;1.63;1.17;;;16.40;91.30;;;;;;4985047;28;20665;-90
2021/09/28 08:31:35;;;;;;;3.72;1.35;;;16.30;90.40;;;;;;4981995;28;20235;-90
2021/09/28 08:34:03;;;;;;;3.15;1.30;;;16.30;90.20;;;;;;4985432;28;20201;-92
2021/09/28 08:36:38;;;;;;;1.27;1.10;;;16.30;90.80;;;;;;4990661;28;20683;-93
2021/09/28 08:39:08;;;;;;;1.70;1.40;;;16.30;90.40;;;;;;4983124;28;20570;-92
2021/09/28 08:41:51;;;;;;;1.23;1.10;;;16.50;89.40;;;;;;4979258;28;20243;-92
2021/09/28 08:44:19;;;;;;;2.53;1.15;;;16.50;89.60;;;;;;4988095;28;20200;-90
2021/09/28 08:46:48;;;;;;;1.45;1.00;;;16.70;89.30;;;;;;4978316;28;20227;-90
2021/09/28 08:49:18;;;;;;;1.20;1.05;;;17.10;86.00;;;;;;4997227;28;20203;-93
2021/09/28 08:51:57;;;;;;;2.35;1.00;;;17.10;83.80;;;;;;4979345;28;20239;-93
2021/09/28 08:54:46;;;;;;;2.88;1.25;;;17.30;83.30;;;;;;4996623;28;20262;-92
2021/09/28 08:57:15;;;;;;;5.55;1.15;;;17.30;83.00;;;;;;4972652;28;20245;-90
2021/09/28 08:59:49;;;;;;;1.48;1.15;;;17.30;81.50;;;;;;5008046;28;20227;-87
2021/09/28 09:02:16;;;;;;;1.85;1.15;;;17.30;80.80;;;;;;5000219;28;20212;-89
2021/09/28 09:04:46;;;;;;;1.60;1.48;;;17.40;80.40;;;;;;5007568;28;20275;-86
2021/09/28 09:07:25;;;;;;;3.10;1.50;;;17.40;79.00;;;;;;5005778;28;20629;-87
2021/09/28 09:09:52;;;;;;;1.55;1.45;;;17.40;79.00;;;;;;4994042;28;20203;-89
2021/09/28 09:12:39;;;;;;;1.35;1.25;;;17.40;79.00;;;;;;5003325;28;20680;-87
2021/09/28 09:15:20;;;;;;;1.58;1.48;;;17.60;79.10;;;;;;5005883;28;20247;-86
2021/09/28 09:17:48;;;;;;;3.17;1.20;;;17.70;77.10;;;;;;4993385;28;20303;-86
2021/09/28 09:20:24;;;;;;;2.35;1.42;;;17.50;77.20;;;;;;4996040;28;20498;-86
2021/09/28 09:22:51;;;;;;;1.55;1.40;;;17.60;77.00;;;;;;4998989;28;20196;-89
2021/09/28 09:25:20;;;;;;;2.22;1.42;;;17.50;76.40;;;;;;4997120;28;20238;-86
2021/09/28 09:27:48;;;;;;;2.17;1.42;;;17.50;76.40;;;;;;4996213;28;20224;-85
2021/09/28 09:30:19;;;;;;;1.73;1.52;;;17.70;77.90;;;;;;4992391;28;20228;-85
2021/09/28 09:32:50;;;;;;;2.47;1.20;;;17.80;77.90;;;;;;5011140;28;20207;-86
2021/09/28 09:35:25;;;;;;;2.13;1.48;;;17.80;76.40;;;;;;4989035;28;20233;-86
2021/09/28 09:38:03;;;;;;;2.88;1.30;;;18.10;75.40;;;;;;5005090;28;20218;-86
2021/09/28 09:40:32;;;;;;;1.80;1.40;;;18.20;75.30;;;;;;4990295;28;20233;-86
2021/09/28 09:43:00;;;;;;;3.25;1.33;;;18.50;74.30;;;;;;4990151;28;20288;-85
2021/09/28 09:45:28;;;;;;;2.70;1.50;;;18.60;70.40;;;;;;4992673;28;20240;-86
2021/09/28 09:47:55;;;;;;;1.50;1.38;;;18.50;70.70;;;;;;4991384;28;20210;-86
2021/09/28 09:50:23;;;;;;;3.00;1.33;;;18.70;67.60;;;;;;4993918;28;20283;-86
2021/09/28 09:53:08;;;;;;;1.75;1.30;;;18.70;67.40;;;;;;4997067;28;20247;-86
2021/09/28 09:55:40;;;;;;;1.42;1.20;;;18.70;67.10;;;;;;4986880;28;20263;-84
2021/09/28 09:58:09;;;;;;;2.85;1.50;;;18.70;66.70;;;;;;4984724;28;20230;-87
2021/09/28 10:00:37;;;;;;;2.40;1.50;;;18.50;67.00;;;;;;4992670;28;20566;-88
2021/09/28 10:03:07;;;;;;;3.22;1.58;;;18.50;68.30;;;;;;4987193;28;20694;-86
2021/09/28 10:05:35;;;;;;;2.45;1.58;;;18.50;68.30;;;;;;4995804;28;20687;-88
2021/09/28 10:08:07;;;;;;;1.67;1.58;;;18.60;65.10;;;;;;4991051;28;20570;-87
2021/09/28 10:10:34;;;;;;;1.65;1.42;;;19.00;65.60;;;;;;4985195;28;20235;-88
2021/09/28 10:13:03;;;;;;;1.83;1.42;;;19.20;62.30;;;;;;4992583;28;20232;-88
2021/09/28 10:15:43;;;;;;;4.18;1.52;;;19.20;58.60;;;;;;4989125;28;20235;-89
2021/09/28 10:21:43;;;;;;;2.35;1.30;;;18.60;61.80;;;;;;4982286;28;20266;-90
2021/09/28 10:24:29;;;;;;;1.40;1.30;;;18.70;65.70;;;;;;4956819;28;20200;-87
2021/09/28 10:27:31;;;;;;;1.58;1.48;;;18.80;61.80;;;;;;4982600;28;20220;-88
2021/09/28 10:29:58;;;;;;;2.92;1.50;;;19.00;62.40;;;;;;4990652;28;20752;-89
2021/09/28 10:32:49;;;;;;;1.67;1.58;;;19.70;58.90;;;;;;4990587;28;20200;-90
2021/09/28 10:35:18;;;;;;;2.17;1.40;;;20.70;56.50;;;;;;4980977;28;20227;-89
2021/09/28 10:37:49;;;;;;;2.85;1.80;;;20.90;51.60;;;;;;4989282;28;20203;-89
2021/09/28 10:40:47;;;;;;;2.80;1.63;;;20.90;48.30;;;;;;4979989;28;20243;-88
2021/09/28 10:43:27;;;;;;;2.60;1.80;;;20.80;49.80;;;;;;4992871;28;20201;-88
2021/09/28 10:45:56;;;;;;;2.30;1.80;;;20.60;50.60;;;;;;4985623;28;20311;-85
2021/09/28 10:48:37;;;;;;;2.35;1.65;;;20.80;52.30;;;;;;4991901;28;20204;-88
2021/09/28 10:51:13;;;;;;;3.20;1.65;;;20.40;50.50;;;;;;4985056;28;20230;-89
2021/09/28 10:53:47;;;;;;;2.65;1.80;;;19.90;52.90;;;;;;4989204;28;20196;-89
2021/09/28 10:56:15;;;;;;;3.03;1.98;;;19.70;54.10;;;;;;4975769;28;20240;-90
2021/09/28 11:02:09;;;;;;;1.58;1.48;;;19.30;59.00;;;;;;4979553;28;20695;-87
2021/09/28 11:04:37;;;;;;;3.45;2.60;;;19.00;59.70;;;;;;4999573;28;20206;-88
2021/09/28 11:07:13;;;;;;;2.80;2.60;;;18.80;59.70;;;;;;4994335;28;20208;-86
2021/09/28 11:09:52;;;;;;;3.78;2.50;;;18.60;61.60;;;;;;5003903;28;20249;-88
2021/09/28 11:12:19;;;;;;;3.10;2.50;;;18.70;63.60;;;;;;4989170;28;20255;-91
2021/09/28 11:14:47;;;;;;;3.10;2.80;;;18.50;62.00;;;;;;4992318;28;20207;-88
2021/09/28 11:17:17;;;;;;;3.08;2.75;;;18.30;66.10;;;;;;4985290;28;20239;-85
2021/09/28 11:19:46;;;;;;;3.20;2.50;;;18.20;66.30;;;;;;4998991;28;20264;-86
2021/09/28 11:22:23;;;;;;;4.30;3.30;;;18.40;68.10;;;;;;4999455;28;20200;-88
2021/09/28 11:24:50;;;;;;;4.72;3.25;;;18.30;63.50;;;;;;4995832;28;20200;-87
2021/09/28 11:27:18;;;;;;;4.47;2.95;;;18.20;66.10;;;;;;5000114;28;20259;-92
2021/09/28 11:29:45;;;;;;;3.30;3.00;;;18.40;66.70;;;;;;4995073;28;20228;-87
2021/09/28 11:32:12;;;;;;;3.63;2.85;;;18.60;64.40;;;;;;4992780;28;20204;-89
2021/09/28 11:34:42;;;;;;;4.30;3.25;;;18.70;61.20;;;;;;4996277;28;20672;-88
2021/09/28 11:37:10;;;;;;;3.42;3.13;;;18.80;61.90;;;;;;4978577;28;20345;-85
2021/09/28 11:39:41;;;;;;;4.28;3.17;;;18.90;62.20;;;;;;4993601;28;20240;-84
2021/09/28 11:42:10;;;;;;;11.32;5.38;;;18.90;60.40;;;;;;4997739;28;20228;-86
2021/09/28 11:44:47;;;;;;;5.65;4.35;;;19.00;61.00;;;;;;4997274;28;20215;-86
2021/09/28 11:47:15;;;;;;;5.22;3.90;;;19.00;62.30;;;;;;4991756;28;20224;-86
2021/09/28 11:49:50;;;;;;;4.40;3.70;;;19.10;59.50;;;;;;4991449;28;20230;-87
2021/09/28 11:52:19;;;;;;;3.25;2.92;;;19.10;60.00;;;;;;4994145;28;20299;-86
2021/09/28 11:54:48;;;;;;;6.68;5.50;;;19.20;60.70;;;;;;4992087;28;20714;-86
2021/09/28 11:57:16;;;;;;;6.90;3.85;;;19.20;59.20;;;;;;4994143;28;20207;-87
2021/09/28 11:59:44;;;;;;;5.30;2.97;;;19.10;59.80;;;;;;4988680;28;20227;-86
2021/09/28 12:02:13;;;;;;;5.63;4.20;;;19.00;60.00;;;;;;4998046;28;20210;-88
2021/09/28 12:07:58;;;;;;;3.70;2.90;;;18.80;60.80;;;;;;4981200;28;20200;-86
2021/09/28 12:10:25;;;;;;;4.10;3.35;;;18.60;62.50;;;;;;4980519;28;20233;-86
2021/09/28 12:16:22;;;;;;;3.50;2.90;;;18.80;62.60;;;;;;6032737;23;20175;-89
2021/09/28 12:19:05;;;;;;;2.65;2.45;;;18.90;60.10;;;;;;4979154;28;20679;-86
2021/09/28 12:21:32;;;;;;;3.50;2.92;;;19.00;62.10;;;;;;4995021;28;20270;-86
2021/09/28 12:24:19;;;;;;;3.53;3.05;;;19.20;62.00;;;;;;4993532;28;20610;-86
2021/09/28 12:26:47;;;;;;;5.93;3.75;;;19.40;57.10;;;;;;4997270;28;20292;-87
2021/09/28 12:29:17;;;;;;;3.53;3.20;;;19.50;58.90;;;;;;4987158;28;20218;-86
2021/09/28 12:31:45;;;;;;;3.80;3.22;;;19.20;56.60;;;;;;4996762;28;20219;-85
2021/09/28 12:34:12;;;;;;;5.55;3.10;;;19.20;55.20;;;;;;4991402;28;20204;-87
2021/09/28 12:36:39;;;;;;;5.80;3.35;;;19.10;57.90;;;;;;5004893;28;20231;-86
2021/09/28 12:39:16;;;;;;;4.90;3.10;;;18.80;58.50;;;;;;5017136;28;20226;-86
2021/09/28 12:42:05;;;;;;;6.10;2.60;;;18.70;60.30;;;;;;4996547;28;20191;-91
2021/09/28 12:44:33;;;;;;;2.67;2.47;;;18.60;61.30;;;;;;4997954;28;20207;-89
2021/09/28 12:47:30;;;;;;;4.40;2.90;;;18.50;61.80;;;;;;4997938;28;20204;-88
2021/09/28 12:50:00;;;;;;;3.95;3.30;;;18.60;62.30;;;;;;4995547;28;20207;-86
2021/09/28 12:55:50;;;;;;;2.65;2.45;;;18.50;63.40;;;;;;5004503;28;20280;-88
2021/09/28 13:01:49;;;;;;;4.75;2.53;;;18.10;64.30;;;;;;5000643;28;20196;-90
2021/09/28 13:04:17;;;;;;;4.00;2.70;;;17.90;68.40;;;;;;5002207;28;20204;-91
2021/09/28 13:06:47;;;;;;;2.80;2.60;;;17.90;69.30;;;;;;4998576;28;20204;-91
2021/09/28 13:09:14;;;;;;;4.05;2.33;;;17.80;68.90;;;;;;5002361;28;20199;-91
2021/09/28 13:14:28;;;;;;;3.20;2.40;;;18.00;72.00;;;;;;5112211;23;20295;-86
2021/09/28 13:16:57;;;;;;;4.15;2.95;;;18.10;68.80;;;;;;5002548;28;20290;-86
2021/09/28 13:26:17;;;;;;;3.90;2.83;;;18.30;67.70;;;;;;5001929;28;20191;-89
2021/09/28 13:29:40;;;;;;;4.82;3.42;;;18.50;68.80;;;;;;5005472;28;20192;-86
2021/09/28 13:35:36;;;;;;;5.65;3.42;;;18.70;66.30;;;;;;5003104;28;20247;-88